This is the latest recevied weather packets stored in our database for station/object IK1PCD-11. If no packets are shown the sender has not sent any weather packets the latest 10 day(s).
| Time | Temp. | Humidity | Pressure | Rain* | Wind** | Luminosity | Snow |
|---|---|---|---|---|---|---|---|
| 1777672105 | 3.33° C | 75% | 1024.2 hPa | - | - | - | - |
| 1777671205 | 3.33° C | 76% | 1024.1 hPa | - | - | - | - |
| 1777670305 | 3.33° C | 75% | 1024 hPa | - | - | - | - |
| 1777669404 | 3.89° C | 73% | 1023.8 hPa | - | - | - | - |
| 1777666704 | 4.44° C | 69% | 1023.8 hPa | - | - | - | - |
| 1777665804 | 4.44° C | 67% | 1023.8 hPa | - | - | - | - |
| 1777664904 | 5° C | 66% | 1023.8 hPa | - | - | - | - |
| 1777664004 | 5.56° C | 64% | 1023.5 hPa | - | - | - | - |
| 1777663104 | 6.11° C | 65% | 1023.4 hPa | - | - | - | - |
| 1777662203 | 6.11° C | 65% | 1023.5 hPa | - | - | - | - |
| 1777661302 | 7.78° C | 64% | 1023.4 hPa | - | - | - | - |
| 1777660401 | 8.33° C | 60% | 1023.1 hPa | - | - | - | - |
| 1777659505 | 9.44° C | 56% | 1023.1 hPa | - | - | - | - |
| 1777658605 | 10.56° C | 54% | 1023.3 hPa | - | - | - | - |
| 1777657705 | 12.22° C | 51% | 1023.3 hPa | - | - | - | - |
| 1777656805 | 12.22° C | 50% | 1023.2 hPa | - | - | - | - |
| 1777655905 | 13.33° C | 49% | 1023.3 hPa | - | - | - | - |
| 1777655004 | 13.89° C | 48% | 1023.2 hPa | - | - | - | - |
| 1777652304 | 15° C | 47% | 1023.3 hPa | - | - | - | - |
| 1777651404 | 16.11° C | 45% | 1023.4 hPa | - | - | - | - |
| 1777650504 | 15.56° C | 45% | 1023.4 hPa | - | - | - | - |
| 1777649604 | 15° C | 47% | 1023.4 hPa | - | - | - | - |
| 1777648704 | 15.56° C | 45% | 1023.6 hPa | - | - | - | - |
| 1777647804 | 15° C | 48% | 1023.4 hPa | - | - | - | - |
| 1777646904 | 15.56° C | 46% | 1023.5 hPa | - | - | - | - |
* Rain since midnight (hover to see other rain measurements)
** Current wind speed in m/s (hover to see current wind gust speed)